Time;durP1;ratioP1;P1;durP2;ratioP2;P2;SDS_P1;SDS_P2;PMS_P1;PMS_P2;Temp;Humidity;BMP_temperature;BMP_pressure;BME280_temperature;BME280_humidity;BME280_pressure;Samples;Min_cycle;Max_cycle;Signal;HPM_P1;HPM_P2
2023/03/22 00:00:35;;;;;;;9.97;7.60;;;10.10;99.90;;;;;;5045729;28;20475;-70
2023/03/22 00:03:01;;;;;;;9.43;7.30;;;10.10;99.90;;;;;;5039765;28;20607;-70
2023/03/22 00:05:29;;;;;;;13.83;9.13;;;10.10;99.90;;;;;;5045253;28;20472;-67
2023/03/22 00:07:56;;;;;;;13.00;9.00;;;10.10;99.90;;;;;;5026446;28;20511;-70
2023/03/22 00:10:27;;;;;;;12.77;8.80;;;10.10;99.90;;;;;;5043853;28;20523;-70
2023/03/22 00:12:54;;;;;;;10.40;8.10;;;10.10;99.90;;;;;;5028112;28;20572;-71
2023/03/22 00:15:20;;;;;;;10.70;7.10;;;10.10;99.90;;;;;;5031647;28;20463;-70
2023/03/22 00:17:45;;;;;;;12.03;8.07;;;10.10;99.90;;;;;;5025984;28;20585;-70
2023/03/22 00:20:11;;;;;;;11.83;7.57;;;10.00;99.90;;;;;;5045484;28;20216;-69
2023/03/22 00:22:40;;;;;;;12.03;8.03;;;10.00;99.90;;;;;;5011623;28;20717;-71
2023/03/22 00:25:06;;;;;;;13.80;7.80;;;10.00;99.90;;;;;;5030656;28;20262;-69
2023/03/22 00:27:31;;;;;;;11.60;8.30;;;10.10;99.90;;;;;;5008481;28;20546;-68
2023/03/22 00:29:57;;;;;;;10.90;7.30;;;10.00;99.90;;;;;;5014432;28;20551;-70
2023/03/22 00:32:24;;;;;;;10.33;7.90;;;10.00;99.90;;;;;;5020371;28;20216;-69
2023/03/22 00:34:49;;;;;;;10.50;7.20;;;10.00;99.90;;;;;;5023459;28;20570;-71
2023/03/22 00:37:16;;;;;;;13.30;7.80;;;10.00;99.90;;;;;;5028665;28;20217;-69
2023/03/22 00:39:43;;;;;;;10.87;7.27;;;10.00;99.90;;;;;;5014426;28;20212;-69
2023/03/22 00:42:09;;;;;;;13.17;8.40;;;10.00;99.90;;;;;;5011003;28;21079;-71
2023/03/22 00:44:35;;;;;;;9.83;7.73;;;10.00;99.90;;;;;;5008614;28;20468;-69
2023/03/22 00:47:01;;;;;;;6.63;5.90;;;10.00;99.90;;;;;;5029581;28;20825;-70
2023/03/22 00:49:28;;;;;;;7.30;5.90;;;10.00;99.90;;;;;;5020877;28;20460;-71
2023/03/22 00:51:54;;;;;;;9.10;7.20;;;10.00;99.90;;;;;;5034745;28;20208;-70
2023/03/22 00:54:20;;;;;;;13.83;7.87;;;10.00;99.90;;;;;;5029263;28;20814;-71
2023/03/22 00:56:48;;;;;;;11.50;7.30;;;10.00;99.90;;;;;;5028175;28;20205;-72
2023/03/22 00:59:15;;;;;;;8.13;7.10;;;10.00;99.90;;;;;;5029677;28;20467;-70
2023/03/22 01:01:41;;;;;;;10.80;7.63;;;10.00;99.90;;;;;;5003099;28;20449;-70
2023/03/22 01:04:07;;;;;;;9.60;7.80;;;9.90;99.90;;;;;;5032971;28;20468;-71
2023/03/22 01:06:33;;;;;;;11.33;7.40;;;10.00;99.90;;;;;;5017999;28;20209;-71
2023/03/22 01:09:00;;;;;;;9.17;7.27;;;9.90;99.90;;;;;;5027400;28;20323;-70
2023/03/22 01:11:26;;;;;;;9.20;8.20;;;9.90;99.90;;;;;;5039897;28;21045;-70
2023/03/22 01:13:53;;;;;;;10.10;8.03;;;9.90;99.90;;;;;;5020138;28;20885;-71
2023/03/22 01:16:19;;;;;;;11.90;8.17;;;9.80;99.90;;;;;;5035376;28;20829;-70
2023/03/22 01:18:46;;;;;;;10.03;7.20;;;9.80;99.90;;;;;;5032107;28;20530;-70
2023/03/22 01:21:12;;;;;;;9.07;7.63;;;9.80;99.90;;;;;;5015159;28;20534;-70
2023/03/22 01:23:38;;;;;;;12.13;8.63;;;9.80;99.90;;;;;;5028113;28;20223;-70
2023/03/22 01:26:04;;;;;;;12.40;7.50;;;9.80;99.90;;;;;;5036744;28;20480;-70
2023/03/22 01:28:30;;;;;;;11.77;7.87;;;9.80;99.90;;;;;;5026367;28;20294;-70
2023/03/22 01:30:59;;;;;;;10.53;7.47;;;9.70;99.90;;;;;;5028651;28;20314;-71
2023/03/22 01:33:25;;;;;;;10.73;8.30;;;9.60;99.90;;;;;;5016743;28;20490;-69
2023/03/22 01:35:51;;;;;;;9.23;7.47;;;9.60;99.90;;;;;;5007085;28;20495;-70
2023/03/22 01:38:17;;;;;;;12.47;8.40;;;9.50;99.90;;;;;;5026850;28;20514;-70
2023/03/22 01:40:51;;;;;;;9.33;7.00;;;9.60;99.90;;;;;;5041746;28;20867;-71
2023/03/22 01:43:17;;;;;;;15.13;8.03;;;9.60;99.90;;;;;;5022033;28;20549;-71
2023/03/22 01:45:47;;;;;;;13.33;8.67;;;9.60;99.90;;;;;;5028961;28;20286;-70
2023/03/22 01:48:16;;;;;;;14.13;9.30;;;9.60;99.90;;;;;;5013508;28;21004;-71
2023/03/22 01:50:48;;;;;;;10.87;8.00;;;9.50;99.90;;;;;;5027462;28;20462;-70
2023/03/22 01:53:17;;;;;;;13.50;9.37;;;9.50;99.90;;;;;;5014786;28;20470;-70
2023/03/22 01:55:45;;;;;;;11.87;8.60;;;9.40;99.90;;;;;;5033982;28;20461;-70
2023/03/22 01:58:16;;;;;;;12.20;9.37;;;9.40;99.90;;;;;;5030151;28;20466;-70
2023/03/22 02:00:50;;;;;;;13.57;8.90;;;9.40;99.90;;;;;;5029072;28;20515;-70
2023/03/22 02:03:34;;;;;;;12.37;8.90;;;9.50;99.90;;;;;;5006314;28;20457;-70
2023/03/22 02:06:00;;;;;;;10.63;7.33;;;9.50;99.90;;;;;;5026046;28;20473;-70
2023/03/22 02:08:26;;;;;;;10.97;8.57;;;9.50;99.90;;;;;;5031642;28;20566;-70
2023/03/22 02:10:57;;;;;;;13.27;8.80;;;9.50;99.90;;;;;;5030166;28;20223;-70
2023/03/22 02:13:23;;;;;;;15.23;7.40;;;9.40;99.90;;;;;;5013428;28;20554;-70
2023/03/22 02:16:17;;;;;;;12.77;6.70;;;9.40;99.90;;;;;;5026312;28;20477;-69
2023/03/22 02:19:07;;;;;;;9.13;7.23;;;9.40;99.90;;;;;;5016393;28;20527;-69
2023/03/22 02:22:08;;;;;;;8.30;6.03;;;9.40;99.90;;;;;;5024268;28;20526;-69
2023/03/22 02:24:55;;;;;;;9.77;6.37;;;9.40;99.90;;;;;;4997689;28;20464;-71
2023/03/22 02:27:39;;;;;;;8.23;6.10;;;9.40;99.90;;;;;;5014468;28;20646;-70
2023/03/22 02:30:24;;;;;;;8.23;6.43;;;9.40;99.90;;;;;;5037787;28;20475;-70
2023/03/22 02:33:22;;;;;;;9.33;7.00;;;9.40;99.90;;;;;;5032944;28;20444;-70
2023/03/22 02:36:20;;;;;;;12.33;6.40;;;9.40;99.90;;;;;;4999391;28;20511;-70
2023/03/22 02:39:31;;;;;;;9.73;6.83;;;9.30;99.90;;;;;;5004134;28;20471;-70
2023/03/22 02:42:16;;;;;;;9.43;5.93;;;9.30;99.90;;;;;;5017739;28;20455;-69
2023/03/22 02:44:57;;;;;;;6.40;4.73;;;9.30;99.90;;;;;;5024149;28;20502;-70
2023/03/22 02:47:37;;;;;;;9.30;6.83;;;9.30;99.90;;;;;;5040129;28;20818;-71
2023/03/22 02:50:14;;;;;;;6.87;5.60;;;9.20;99.90;;;;;;5021890;28;20633;-70
2023/03/22 02:52:47;;;;;;;9.50;6.17;;;9.20;99.90;;;;;;5024253;28;20533;-69
2023/03/22 02:55:22;;;;;;;6.97;6.10;;;9.20;99.90;;;;;;5038846;28;20487;-71
2023/03/22 02:57:51;;;;;;;9.10;6.13;;;9.10;99.90;;;;;;5023019;28;20449;-70
2023/03/22 03:00:18;;;;;;;6.30;5.07;;;9.10;99.90;;;;;;5009669;28;20497;-70
2023/03/22 03:02:49;;;;;;;7.13;5.67;;;9.10;99.90;;;;;;5022204;28;20451;-71
2023/03/22 03:05:16;;;;;;;10.37;6.20;;;9.10;99.90;;;;;;5033134;28;20469;-71
2023/03/22 03:07:45;;;;;;;9.50;5.77;;;9.10;99.90;;;;;;5019187;28;20450;-69
2023/03/22 03:10:15;;;;;;;7.00;5.30;;;9.10;99.90;;;;;;5021432;28;20500;-70
2023/03/22 03:12:42;;;;;;;6.03;4.60;;;9.00;99.90;;;;;;5018941;28;20481;-69
2023/03/22 03:15:15;;;;;;;6.20;5.03;;;8.90;99.90;;;;;;4997541;28;20456;-70
2023/03/22 03:18:10;;;;;;;7.87;4.83;;;8.80;99.90;;;;;;5009913;28;20458;-70
2023/03/22 03:21:05;;;;;;;7.23;4.37;;;8.90;99.90;;;;;;5023875;28;20480;-67
2023/03/22 03:24:06;;;;;;;8.10;5.30;;;8.90;99.90;;;;;;4997737;28;20477;-70
2023/03/22 03:26:40;;;;;;;10.10;4.93;;;8.90;99.90;;;;;;5014447;28;20462;-69
2023/03/22 03:29:39;;;;;;;7.50;5.17;;;8.80;99.90;;;;;;5013850;28;20477;-69
2023/03/22 03:32:05;;;;;;;5.73;4.40;;;8.70;99.90;;;;;;5019836;28;20470;-70
2023/03/22 03:34:38;;;;;;;8.60;5.20;;;8.70;99.90;;;;;;5042242;28;20553;-69
2023/03/22 03:37:17;;;;;;;9.63;4.90;;;8.70;99.90;;;;;;5024196;28;20463;-70
2023/03/22 03:39:55;;;;;;;8.73;5.10;;;8.70;99.90;;;;;;5026132;28;20462;-70
2023/03/22 03:42:26;;;;;;;6.83;5.33;;;8.80;99.90;;;;;;5030221;28;20496;-70
2023/03/22 03:44:52;;;;;;;6.87;4.93;;;8.80;99.90;;;;;;5008818;28;20456;-71
2023/03/22 03:47:18;;;;;;;6.37;4.93;;;8.80;99.90;;;;;;5051665;28;20470;-71
2023/03/22 03:49:45;;;;;;;8.10;4.93;;;8.80;99.90;;;;;;5028358;28;20481;-70
2023/03/22 03:52:12;;;;;;;6.73;5.03;;;8.70;99.90;;;;;;5048760;28;20481;-70
2023/03/22 03:54:37;;;;;;;6.30;4.70;;;8.70;99.90;;;;;;5005848;28;20462;-70
2023/03/22 03:57:06;;;;;;;9.83;5.50;;;8.60;99.90;;;;;;5026252;28;20473;-70
2023/03/22 03:59:32;;;;;;;6.83;4.87;;;8.60;99.90;;;;;;5005217;28;20465;-70
2023/03/22 04:02:01;;;;;;;7.30;5.93;;;8.60;99.90;;;;;;5013846;28;20216;-70
2023/03/22 04:04:30;;;;;;;10.23;4.90;;;8.60;99.90;;;;;;5024426;28;20456;-71
2023/03/22 04:07:01;;;;;;;6.37;5.40;;;8.50;99.90;;;;;;5030060;28;20991;-70
2023/03/22 04:09:32;;;;;;;8.13;5.33;;;8.50;99.90;;;;;;5030500;28;20545;-70
2023/03/22 04:12:08;;;;;;;5.47;4.90;;;8.50;99.90;;;;;;5030757;28;20579;-69
2023/03/22 04:14:34;;;;;;;7.27;5.37;;;8.40;99.90;;;;;;4997574;28;20478;-71
2023/03/22 04:17:07;;;;;;;10.20;6.03;;;8.40;99.90;;;;;;5008951;28;20481;-71
2023/03/22 04:19:34;;;;;;;6.03;5.43;;;8.30;99.90;;;;;;5032232;28;20545;-70
2023/03/22 04:22:00;;;;;;;9.20;5.30;;;8.20;99.90;;;;;;5027089;28;20501;-70
2023/03/22 04:24:25;;;;;;;7.13;5.20;;;8.30;99.90;;;;;;5027551;28;20230;-70
2023/03/22 04:26:51;;;;;;;8.43;5.57;;;8.30;99.90;;;;;;5030987;28;20299;-70
2023/03/22 04:29:23;;;;;;;5.67;4.80;;;8.30;99.90;;;;;;5027228;28;20669;-70
2023/03/22 04:31:53;;;;;;;6.07;5.10;;;8.30;99.90;;;;;;5030099;28;20454;-70
2023/03/22 04:34:27;;;;;;;7.73;5.33;;;8.30;99.90;;;;;;5026783;28;20832;-71
2023/03/22 04:37:01;;;;;;;10.10;5.20;;;8.30;99.90;;;;;;5034756;28;20487;-69
2023/03/22 04:39:31;;;;;;;7.97;5.83;;;8.20;99.90;;;;;;5028426;28;20445;-70
2023/03/22 04:42:17;;;;;;;9.70;5.80;;;8.20;99.90;;;;;;5024651;28;20459;-70
2023/03/22 04:44:44;;;;;;;6.37;5.77;;;8.20;99.90;;;;;;5011983;28;20446;-69
2023/03/22 04:47:10;;;;;;;9.77;5.50;;;8.20;99.90;;;;;;5029875;28;20469;-69
2023/03/22 04:49:36;;;;;;;7.97;5.43;;;8.10;99.90;;;;;;5041338;28;20211;-67
2023/03/22 04:52:02;;;;;;;9.93;5.53;;;8.10;99.90;;;;;;5033577;28;20990;-70
2023/03/22 04:54:33;;;;;;;7.70;5.20;;;8.10;99.90;;;;;;5013934;28;20983;-70
2023/03/22 04:56:59;;;;;;;9.17;6.03;;;8.10;99.90;;;;;;5031789;28;20458;-70
2023/03/22 04:59:27;;;;;;;8.20;6.03;;;8.10;99.90;;;;;;5022094;28;20217;-70
2023/03/22 05:01:53;;;;;;;5.50;4.97;;;8.00;99.90;;;;;;5029652;28;20987;-70
2023/03/22 05:04:23;;;;;;;8.33;6.00;;;8.00;99.90;;;;;;5013528;28;20473;-70
2023/03/22 05:06:57;;;;;;;8.77;5.43;;;8.00;99.90;;;;;;5023500;28;20470;-69
2023/03/22 05:09:29;;;;;;;8.43;5.63;;;8.00;99.90;;;;;;5027073;28;20470;-71
2023/03/22 05:11:56;;;;;;;7.63;5.80;;;8.00;99.90;;;;;;5026018;28;20482;-70
2023/03/22 05:14:29;;;;;;;5.43;4.50;;;8.00;99.90;;;;;;5030259;28;20470;-69
2023/03/22 05:16:54;;;;;;;7.03;5.20;;;8.00;99.90;;;;;;5028768;28;20971;-70
2023/03/22 05:19:21;;;;;;;9.03;5.50;;;8.00;99.90;;;;;;5030373;28;20215;-70
2023/03/22 05:21:47;;;;;;;6.83;5.00;;;8.00;99.90;;;;;;5025088;28;20247;-70
2023/03/22 05:24:13;;;;;;;8.97;5.20;;;8.00;99.90;;;;;;5026422;28;20466;-70
2023/03/22 05:26:41;;;;;;;5.60;5.00;;;8.00;99.90;;;;;;5016024;28;20807;-69
2023/03/22 05:29:10;;;;;;;6.20;4.93;;;8.00;99.90;;;;;;5028597;28;20581;-70
2023/03/22 05:31:58;;;;;;;6.57;5.03;;;8.00;99.90;;;;;;5024161;28;20461;-69
2023/03/22 05:34:24;;;;;;;10.60;6.13;;;7.90;99.90;;;;;;5037954;28;20469;-69
2023/03/22 05:36:50;;;;;;;8.00;5.60;;;7.90;99.90;;;;;;5029616;28;20224;-70
2023/03/22 05:39:29;;;;;;;8.20;6.40;;;7.90;99.90;;;;;;5027133;28;20223;-71
2023/03/22 05:41:55;;;;;;;6.87;5.70;;;7.90;99.90;;;;;;5033512;28;20503;-69
2023/03/22 05:44:21;;;;;;;9.53;6.67;;;7.80;99.90;;;;;;5012611;28;20859;-71
2023/03/22 05:47:13;;;;;;;12.10;6.73;;;7.80;99.90;;;;;;5037004;28;20218;-70
2023/03/22 05:49:50;;;;;;;7.60;5.60;;;7.80;99.90;;;;;;5021048;28;20450;-70
2023/03/22 05:52:16;;;;;;;9.13;7.10;;;7.80;99.90;;;;;;5030263;28;20460;-70
2023/03/22 05:54:59;;;;;;;8.50;5.80;;;7.80;99.90;;;;;;5036440;28;21030;-69
2023/03/22 05:57:25;;;;;;;10.00;6.23;;;7.80;99.90;;;;;;5016914;28;20477;-70
2023/03/22 05:59:52;;;;;;;15.13;6.70;;;7.80;99.90;;;;;;5005809;28;20246;-70
2023/03/22 06:02:24;;;;;;;9.03;5.97;;;7.80;99.90;;;;;;5023916;28;20536;-69
2023/03/22 06:04:51;;;;;;;7.27;6.20;;;7.80;99.90;;;;;;5010474;28;20458;-69
2023/03/22 06:07:17;;;;;;;6.30;5.53;;;7.80;99.90;;;;;;5029345;28;21042;-70
2023/03/22 06:09:48;;;;;;;7.67;5.43;;;7.70;99.90;;;;;;5018913;28;20828;-69
2023/03/22 06:12:21;;;;;;;7.30;5.53;;;7.80;99.90;;;;;;5026067;28;20725;-71
2023/03/22 06:14:50;;;;;;;6.50;5.77;;;7.80;99.90;;;;;;5038768;28;20456;-69
2023/03/22 06:17:30;;;;;;;5.90;5.30;;;7.80;99.90;;;;;;5017736;28;21204;-69
2023/03/22 06:19:56;;;;;;;5.93;4.60;;;7.90;99.90;;;;;;5033099;28;20462;-69
2023/03/22 06:22:23;;;;;;;7.30;5.90;;;7.90;99.90;;;;;;5013609;28;20457;-68
2023/03/22 06:24:49;;;;;;;9.13;5.63;;;7.90;99.90;;;;;;5024756;28;20563;-69
2023/03/22 06:27:21;;;;;;;8.30;5.50;;;7.90;99.90;;;;;;5015040;28;20227;-69
2023/03/22 06:29:49;;;;;;;8.40;5.77;;;7.90;99.90;;;;;;4979341;28;20476;-70
2023/03/22 06:32:16;;;;;;;8.07;6.97;;;7.90;99.90;;;;;;5007962;28;20536;-69
2023/03/22 06:34:42;;;;;;;9.17;6.73;;;7.90;99.90;;;;;;5030165;28;20978;-69
2023/03/22 06:37:09;;;;;;;9.50;7.30;;;7.90;99.90;;;;;;5010591;28;20263;-69
2023/03/22 06:39:39;;;;;;;13.17;7.60;;;7.90;99.90;;;;;;5026662;28;20518;-70
2023/03/22 06:42:05;;;;;;;10.50;6.97;;;7.90;99.90;;;;;;5014251;28;20494;-69
2023/03/22 06:44:31;;;;;;;11.20;7.90;;;7.90;99.90;;;;;;5027066;28;20527;-69
2023/03/22 06:47:12;;;;;;;15.20;8.03;;;7.90;99.90;;;;;;5008591;28;20462;-69
2023/03/22 06:50:16;;;;;;;13.30;8.27;;;8.00;99.90;;;;;;4968400;28;20484;-71
2023/03/22 06:53:02;;;;;;;11.07;7.10;;;8.00;99.90;;;;;;4951210;28;20517;-69
2023/03/22 06:55:32;;;;;;;12.97;7.80;;;8.00;99.90;;;;;;4992686;28;20482;-69
2023/03/22 06:57:59;;;;;;;14.20;8.63;;;8.00;99.90;;;;;;5007920;28;20464;-70
2023/03/22 07:00:25;;;;;;;10.67;7.53;;;8.00;99.90;;;;;;5030291;28;20473;-69
2023/03/22 07:02:51;;;;;;;11.37;8.20;;;8.10;99.90;;;;;;5029854;28;20796;-70
2023/03/22 07:05:25;;;;;;;12.40;7.30;;;8.10;99.90;;;;;;5029970;28;20470;-71
2023/03/22 07:07:51;;;;;;;10.77;7.70;;;8.10;99.90;;;;;;5022961;28;20477;-69
2023/03/22 07:10:17;;;;;;;11.57;7.93;;;8.10;99.90;;;;;;5030535;28;20243;-69
2023/03/22 07:12:43;;;;;;;13.17;7.73;;;8.10;99.90;;;;;;5029067;28;20226;-70
2023/03/22 07:15:12;;;;;;;15.43;8.93;;;8.20;99.90;;;;;;5021510;28;20223;-70
2023/03/22 07:17:53;;;;;;;17.97;9.30;;;8.30;99.90;;;;;;5021827;28;20495;-68
2023/03/22 07:20:19;;;;;;;15.10;9.23;;;8.30;99.90;;;;;;5013932;28;20505;-69
2023/03/22 07:22:45;;;;;;;17.80;9.37;;;8.30;99.90;;;;;;5028598;28;20293;-69
2023/03/22 07:25:11;;;;;;;24.83;10.20;;;8.40;99.90;;;;;;5029208;28;20455;-70
2023/03/22 07:27:37;;;;;;;11.50;8.37;;;8.40;99.90;;;;;;5011287;28;20526;-69
2023/03/22 07:30:04;;;;;;;13.30;8.63;;;8.50;99.90;;;;;;5025436;28;20465;-69
2023/03/22 07:32:33;;;;;;;12.83;7.90;;;8.50;99.90;;;;;;5030448;28;20831;-69
2023/03/22 07:35:05;;;;;;;9.67;6.83;;;8.70;99.90;;;;;;5013186;28;20857;-70
2023/03/22 07:37:31;;;;;;;10.80;7.87;;;8.80;99.90;;;;;;5001098;28;20464;-69
2023/03/22 07:39:57;;;;;;;9.60;8.00;;;8.90;99.90;;;;;;5042592;28;20455;-68
2023/03/22 07:42:25;;;;;;;10.00;6.83;;;8.90;99.90;;;;;;5011089;28;20223;-69
2023/03/22 07:45:19;;;;;;;7.87;6.23;;;9.00;99.90;;;;;;5017383;28;20473;-69
2023/03/22 07:47:45;;;;;;;7.77;5.80;;;9.00;99.90;;;;;;5045958;28;20446;-69
2023/03/22 07:50:18;;;;;;;29.27;6.57;;;9.20;99.90;;;;;;5048901;28;20994;-70
2023/03/22 07:52:47;;;;;;;6.47;5.00;;;9.40;99.90;;;;;;5028774;28;20530;-70
2023/03/22 07:55:14;;;;;;;4.50;4.10;;;9.60;99.90;;;;;;5025824;28;20617;-70
2023/03/22 07:57:40;;;;;;;5.10;4.30;;;9.80;99.90;;;;;;5026109;28;20463;-67
2023/03/22 08:00:09;;;;;;;5.57;4.00;;;10.00;99.90;;;;;;5013540;28;20488;-70
2023/03/22 08:02:54;;;;;;;4.70;4.30;;;10.00;99.90;;;;;;5015001;28;20536;-70
2023/03/22 08:05:40;;;;;;;8.37;4.80;;;10.10;99.90;;;;;;5028475;28;20556;-70
2023/03/22 08:08:05;;;;;;;6.30;4.57;;;10.20;99.90;;;;;;5028025;28;20472;-69
2023/03/22 08:10:31;;;;;;;6.60;4.23;;;10.40;99.90;;;;;;5023270;28;20458;-70
2023/03/22 08:12:58;;;;;;;5.47;3.60;;;10.50;99.90;;;;;;5027464;28;20220;-70
2023/03/22 08:15:25;;;;;;;6.63;4.40;;;10.60;99.90;;;;;;5027343;28;20578;-71
2023/03/22 08:17:51;;;;;;;4.90;4.23;;;10.80;99.90;;;;;;5019740;28;20477;-70
2023/03/22 08:20:28;;;;;;;4.63;4.07;;;10.90;99.90;;;;;;5023159;28;20553;-70
2023/03/22 08:22:59;;;;;;;4.87;3.10;;;10.90;99.90;;;;;;5027169;28;20456;-70
2023/03/22 08:25:25;;;;;;;6.33;4.20;;;10.80;99.90;;;;;;5042494;28;20451;-71
2023/03/22 08:27:53;;;;;;;3.20;2.90;;;10.90;99.90;;;;;;5011546;28;20459;-69
2023/03/22 08:30:20;;;;;;;3.63;3.27;;;10.90;99.90;;;;;;5009651;28;20459;-69
2023/03/22 08:32:46;;;;;;;5.80;3.60;;;10.90;99.90;;;;;;5023103;28;20212;-70
2023/03/22 08:35:12;;;;;;;3.43;2.97;;;10.90;99.90;;;;;;5032014;28;20487;-70
2023/03/22 08:37:39;;;;;;;5.83;3.70;;;10.90;99.90;;;;;;5029810;28;20555;-70
2023/03/22 08:40:08;;;;;;;3.93;3.20;;;10.90;99.90;;;;;;5016468;28;20797;-70
2023/03/22 08:42:44;;;;;;;6.43;3.33;;;11.00;99.90;;;;;;5017147;28;20548;-71
2023/03/22 08:45:13;;;;;;;4.47;3.03;;;11.20;99.90;;;;;;5032283;28;21181;-70
2023/03/22 08:47:46;;;;;;;8.03;3.80;;;11.30;99.90;;;;;;5024443;28;20220;-70
2023/03/22 08:50:12;;;;;;;2.63;2.17;;;11.40;99.90;;;;;;5033192;28;20471;-70
2023/03/22 08:52:45;;;;;;;7.70;2.40;;;11.40;99.90;;;;;;5017349;28;20225;-69
2023/03/22 08:55:30;;;;;;;3.17;2.43;;;11.40;99.90;;;;;;5017282;28;20560;-70
2023/03/22 08:58:10;;;;;;;2.90;2.60;;;11.30;99.90;;;;;;5049859;28;20466;-70
2023/03/22 09:00:56;;;;;;;3.67;2.37;;;11.40;99.90;;;;;;5046382;28;20589;-70
2023/03/22 09:03:27;;;;;;;2.00;1.90;;;11.40;99.90;;;;;;5016567;28;20468;-70
2023/03/22 09:05:53;;;;;;;3.27;1.97;;;11.40;99.90;;;;;;5044059;28;20458;-71
2023/03/22 09:08:19;;;;;;;5.70;1.93;;;11.40;99.90;;;;;;5030844;28;20297;-71
2023/03/22 09:10:50;;;;;;;1.73;1.63;;;11.50;99.90;;;;;;5029301;28;20451;-70
2023/03/22 09:13:17;;;;;;;2.60;2.17;;;11.50;99.90;;;;;;5016639;28;20458;-71
2023/03/22 09:15:51;;;;;;;4.83;2.17;;;11.50;99.90;;;;;;5025881;28;20539;-70
2023/03/22 09:18:23;;;;;;;2.27;2.00;;;11.60;99.90;;;;;;5030341;28;20471;-70
2023/03/22 09:20:50;;;;;;;2.70;1.97;;;11.50;99.90;;;;;;5014362;28;20449;-70
2023/03/22 09:23:19;;;;;;;2.50;2.30;;;11.60;99.90;;;;;;5014463;28;20468;-69
2023/03/22 09:25:46;;;;;;;2.67;2.33;;;11.60;99.90;;;;;;5048344;28;20805;-71
2023/03/22 09:28:13;;;;;;;3.10;2.10;;;11.70;99.90;;;;;;5026876;28;20477;-70
2023/03/22 09:30:39;;;;;;;3.70;2.67;;;11.70;99.90;;;;;;5028774;28;20457;-69
2023/03/22 09:33:07;;;;;;;3.80;2.00;;;11.70;99.90;;;;;;5046454;28;20456;-70
2023/03/22 09:35:38;;;;;;;2.30;2.10;;;11.80;99.90;;;;;;5031713;28;20476;-70
2023/03/22 09:38:06;;;;;;;3.10;2.23;;;12.00;99.90;;;;;;5013200;28;20825;-70
2023/03/22 09:40:33;;;;;;;3.60;3.10;;;12.10;99.90;;;;;;5019921;28;20461;-70
2023/03/22 09:43:06;;;;;;;2.63;2.43;;;12.10;99.90;;;;;;5027900;28;20221;-70
2023/03/22 09:45:42;;;;;;;4.37;2.47;;;12.20;99.90;;;;;;5010855;28;20540;-68
2023/03/22 09:48:18;;;;;;;3.27;2.73;;;12.40;99.90;;;;;;5025632;28;20460;-70
2023/03/22 09:50:48;;;;;;;2.63;2.43;;;12.50;99.90;;;;;;5031080;28;20570;-70
2023/03/22 09:53:15;;;;;;;4.90;2.80;;;12.70;99.90;;;;;;5021392;28;20469;-70
2023/03/22 09:56:03;;;;;;;5.70;2.80;;;12.80;99.90;;;;;;5026262;28;20484;-71
2023/03/22 09:58:41;;;;;;;3.53;2.80;;;12.90;99.90;;;;;;5010148;28;20473;-70
2023/03/22 10:01:37;;;;;;;2.90;2.60;;;12.90;99.90;;;;;;5033295;28;20493;-70
2023/03/22 10:04:03;;;;;;;2.57;2.33;;;13.00;99.90;;;;;;5028722;28;20466;-70
2023/03/22 10:06:29;;;;;;;5.17;2.20;;;13.10;99.90;;;;;;5029663;28;20473;-70
2023/03/22 10:09:02;;;;;;;2.20;1.90;;;13.20;99.90;;;;;;5013695;28;20617;-70
2023/03/22 10:11:49;;;;;;;2.33;2.10;;;13.30;99.90;;;;;;5031387;28;20494;-71
2023/03/22 10:14:30;;;;;;;2.30;2.10;;;13.50;99.90;;;;;;5029260;28;20481;-71
2023/03/22 10:16:57;;;;;;;2.13;1.90;;;13.70;99.90;;;;;;5012344;28;20461;-68
2023/03/22 10:19:44;;;;;;;3.10;2.20;;;13.90;99.90;;;;;;5024913;28;20979;-70
2023/03/22 10:22:15;;;;;;;2.20;2.10;;;14.00;99.90;;;;;;5023702;28;20462;-72
2023/03/22 10:24:44;;;;;;;2.03;1.80;;;14.10;99.90;;;;;;5007918;28;20467;-73
2023/03/22 10:27:18;;;;;;;4.00;2.50;;;14.10;99.90;;;;;;5047543;28;21051;-70
2023/03/22 10:29:52;;;;;;;2.20;2.10;;;14.60;99.90;;;;;;5027792;28;20442;-70
2023/03/22 10:32:43;;;;;;;2.30;2.20;;;14.60;99.90;;;;;;5041782;28;20469;-72
2023/03/22 10:35:14;;;;;;;2.43;2.23;;;14.60;99.90;;;;;;5034705;28;20847;-71
2023/03/22 10:37:43;;;;;;;2.23;2.03;;;14.80;99.90;;;;;;5027255;28;20466;-69
2023/03/22 10:40:17;;;;;;;2.67;2.47;;;15.00;99.90;;;;;;5029125;28;20549;-70
2023/03/22 10:42:50;;;;;;;2.23;2.07;;;15.10;99.90;;;;;;5013214;28;20474;-68
2023/03/22 10:45:16;;;;;;;2.23;2.13;;;15.00;99.90;;;;;;5028431;28;20980;-71
2023/03/22 10:47:58;;;;;;;1.87;1.77;;;15.20;99.90;;;;;;5029077;28;20470;-70
2023/03/22 10:50:36;;;;;;;6.50;2.20;;;15.30;99.90;;;;;;5047711;28;20227;-71
2023/03/22 10:53:23;;;;;;;3.03;2.07;;;15.30;99.90;;;;;;5047893;28;20853;-70
2023/03/22 10:55:49;;;;;;;1.93;1.83;;;15.20;99.90;;;;;;5035972;28;20533;-70
2023/03/22 10:58:14;;;;;;;1.70;1.60;;;15.40;99.90;;;;;;5029738;28;20538;-70
2023/03/22 11:00:53;;;;;;;2.60;1.93;;;15.50;99.90;;;;;;5028092;28;20235;-69
2023/03/22 11:03:24;;;;;;;2.10;2.00;;;15.60;99.90;;;;;;5047842;28;20631;-71
2023/03/22 11:06:07;;;;;;;1.90;1.80;;;15.70;99.90;;;;;;5022200;28;20829;-70
2023/03/22 11:08:49;;;;;;;2.00;1.53;;;15.90;99.90;;;;;;5045922;28;20543;-69
2023/03/22 11:11:24;;;;;;;2.17;1.83;;;16.10;99.90;;;;;;5026911;28;20516;-71
2023/03/22 11:14:04;;;;;;;1.97;1.87;;;16.00;99.90;;;;;;5040241;28;20467;-72
2023/03/22 11:16:30;;;;;;;2.00;1.80;;;16.30;99.90;;;;;;5041668;28;20482;-69
2023/03/22 11:19:00;;;;;;;1.63;1.53;;;16.50;99.90;;;;;;5010076;28;20450;-71
2023/03/22 11:21:31;;;;;;;1.50;1.40;;;16.40;99.90;;;;;;5008984;28;20538;-70
2023/03/22 11:24:03;;;;;;;1.43;1.33;;;16.40;99.90;;;;;;5026000;28;20464;-70
2023/03/22 11:26:32;;;;;;;1.40;1.30;;;16.40;99.90;;;;;;5019689;28;20517;-71
2023/03/22 11:29:10;;;;;;;3.57;1.53;;;16.30;99.90;;;;;;5027670;28;20454;-70
2023/03/22 11:31:54;;;;;;;2.97;2.00;;;16.60;99.90;;;;;;5004804;28;20463;-71
2023/03/22 11:34:23;;;;;;;1.60;1.50;;;16.70;99.90;;;;;;5027406;28;20569;-70
2023/03/22 11:37:07;;;;;;;2.73;2.20;;;16.90;99.90;;;;;;5027010;28;20451;-70
2023/03/22 11:39:32;;;;;;;1.77;1.60;;;16.90;99.90;;;;;;5032970;28;20529;-71
2023/03/22 11:42:02;;;;;;;1.87;1.67;;;17.10;99.90;;;;;;5024015;28;20450;-71
2023/03/22 11:44:32;;;;;;;2.50;1.80;;;17.10;99.90;;;;;;5028703;28;20216;-70
2023/03/22 11:47:00;;;;;;;5.37;1.80;;;17.20;99.90;;;;;;5022530;28;20448;-70
2023/03/22 11:49:34;;;;;;;1.83;1.73;;;17.10;99.90;;;;;;5019606;28;20467;-71
2023/03/22 11:52:08;;;;;;;1.50;1.40;;;17.30;99.90;;;;;;5030765;28;20471;-71
2023/03/22 11:54:35;;;;;;;1.80;1.60;;;17.40;99.90;;;;;;5045630;28;20984;-71
2023/03/22 11:57:04;;;;;;;3.23;1.57;;;17.50;99.90;;;;;;5040494;28;20457;-71
2023/03/22 11:59:46;;;;;;;1.60;1.50;;;17.50;99.90;;;;;;5021532;28;20467;-70
2023/03/22 12:02:54;;;;;;;1.57;1.47;;;17.60;99.90;;;;;;5030399;28;20898;-72
2023/03/22 12:05:29;;;;;;;1.40;1.30;;;17.80;99.90;;;;;;4926086;29;20464;-71
2023/03/22 12:08:10;;;;;;;3.13;1.60;;;17.80;99.90;;;;;;4931114;28;20439;-72
2023/03/22 12:10:40;;;;;;;1.40;1.30;;;17.70;99.90;;;;;;5006674;28;20538;-71
2023/03/22 12:13:14;;;;;;;1.57;1.00;;;17.90;99.90;;;;;;5050443;28;20881;-71
2023/03/22 12:15:47;;;;;;;4.60;1.93;;;17.80;99.90;;;;;;5012963;28;20474;-71
2023/03/22 12:18:21;;;;;;;1.93;1.70;;;17.70;99.90;;;;;;5025597;28;20490;-71
2023/03/22 12:20:56;;;;;;;1.40;1.40;;;17.90;99.90;;;;;;5026072;28;20458;-71
2023/03/22 12:23:29;;;;;;;1.40;1.30;;;17.90;99.90;;;;;;5015629;28;20549;-72
2023/03/22 12:26:10;;;;;;;2.00;1.40;;;18.00;99.90;;;;;;5030882;28;20509;-71
2023/03/22 12:28:57;;;;;;;1.80;1.70;;;18.10;99.90;;;;;;5031097;28;21040;-71
2023/03/22 12:31:30;;;;;;;1.57;1.47;;;18.10;99.90;;;;;;5040918;28;20549;-71
2023/03/22 12:34:04;;;;;;;1.60;1.50;;;18.10;99.90;;;;;;5027131;28;20452;-71
2023/03/22 12:36:44;;;;;;;1.73;1.20;;;18.20;99.90;;;;;;5024064;28;20479;-71
2023/03/22 12:39:23;;;;;;;1.67;1.57;;;18.30;99.90;;;;;;5024262;28;20497;-71
2023/03/22 12:41:54;;;;;;;1.80;1.70;;;18.30;99.90;;;;;;5027005;28;20478;-71
2023/03/22 12:44:42;;;;;;;2.00;1.50;;;18.30;99.90;;;;;;5030572;28;20527;-71
2023/03/22 12:47:33;;;;;;;1.73;1.20;;;18.30;99.90;;;;;;5013607;28;20459;-71
2023/03/22 12:50:05;;;;;;;1.50;1.40;;;18.20;99.90;;;;;;5043256;28;20472;-72
2023/03/22 12:52:39;;;;;;;1.70;1.57;;;18.20;99.90;;;;;;5031367;28;20478;-70
2023/03/22 12:55:09;;;;;;;1.80;1.40;;;18.20;99.90;;;;;;5048014;28;20518;-71
2023/03/22 12:57:37;;;;;;;1.40;1.30;;;18.30;99.90;;;;;;5022249;28;20799;-69
2023/03/22 13:00:12;;;;;;;2.20;1.50;;;18.30;99.90;;;;;;5045776;28;20458;-71
2023/03/22 13:02:39;;;;;;;1.50;1.40;;;18.30;99.90;;;;;;5010872;28;20509;-72
2023/03/22 13:05:08;;;;;;;1.67;1.57;;;18.20;99.90;;;;;;5045125;28;20468;-71
2023/03/22 13:07:54;;;;;;;2.50;1.70;;;18.20;99.90;;;;;;5025714;28;20466;-71
2023/03/22 13:10:32;;;;;;;1.90;1.50;;;18.10;99.90;;;;;;5024198;28;20474;-71
2023/03/22 13:13:14;;;;;;;2.70;1.80;;;18.00;99.90;;;;;;5027944;28;20465;-71
2023/03/22 13:15:55;;;;;;;2.00;1.90;;;18.00;99.90;;;;;;5022168;28;20488;-69